Time;durP1;ratioP1;P1;durP2;ratioP2;P2;SDS_P1;SDS_P2;PMS_P1;PMS_P2;Temp;Humidity;BMP_temperature;BMP_pressure;BME280_temperature;BME280_humidity;BME280_pressure;Samples;Min_cycle;Max_cycle;Signal;HPM_P1;HPM_P2
2023/08/07 00:02:04;;;;;;;5.10;2.65;;;16.10;99.90;;;;;;5003802;28;20664;-75
2023/08/07 00:04:29;;;;;;;4.75;3.20;;;16.10;99.90;;;;;;5007965;28;20188;-75
2023/08/07 00:06:55;;;;;;;4.78;2.80;;;16.10;99.90;;;;;;5026379;28;20208;-75
2023/08/07 00:09:21;;;;;;;3.53;3.10;;;16.10;99.90;;;;;;5010775;28;20222;-75
2023/08/07 00:11:46;;;;;;;5.63;3.10;;;16.00;99.90;;;;;;5010070;28;20263;-75
2023/08/07 00:14:12;;;;;;;4.07;2.88;;;16.10;99.90;;;;;;5024533;28;20212;-74
2023/08/07 00:16:37;;;;;;;5.97;2.97;;;16.10;99.90;;;;;;5009047;28;20647;-74
2023/08/07 00:19:03;;;;;;;7.35;3.83;;;16.20;99.90;;;;;;5007686;28;20236;-75
2023/08/07 00:21:29;;;;;;;10.05;3.55;;;16.10;99.90;;;;;;5007066;28;20593;-75
2023/08/07 00:23:54;;;;;;;6.68;3.65;;;16.10;99.90;;;;;;5006812;28;20197;-75
2023/08/07 00:26:21;;;;;;;4.10;2.85;;;16.00;99.90;;;;;;5003428;28;20242;-74
2023/08/07 00:28:46;;;;;;;4.82;3.00;;;16.10;99.90;;;;;;5006099;28;20197;-75
2023/08/07 00:31:12;;;;;;;5.53;3.28;;;16.10;99.90;;;;;;5002712;28;20659;-74
2023/08/07 00:33:38;;;;;;;6.50;3.33;;;16.10;99.90;;;;;;5000442;28;20201;-75
2023/08/07 00:36:04;;;;;;;4.70;2.83;;;16.10;99.90;;;;;;5001000;28;20204;-75
2023/08/07 00:38:30;;;;;;;7.82;3.15;;;16.10;99.90;;;;;;5002763;28;20213;-75
2023/08/07 00:40:55;;;;;;;5.07;3.55;;;16.10;99.90;;;;;;5003531;28;20621;-75
2023/08/07 00:43:21;;;;;;;14.80;7.63;;;16.10;99.90;;;;;;5015751;28;20219;-74
2023/08/07 00:45:47;;;;;;;5.38;3.88;;;16.10;99.90;;;;;;5009013;28;20281;-75
2023/08/07 00:48:16;;;;;;;9.68;5.00;;;16.10;99.90;;;;;;5008384;28;20201;-75
2023/08/07 00:50:42;;;;;;;3.97;3.13;;;16.10;99.90;;;;;;5023768;28;20208;-75
2023/08/07 00:53:09;;;;;;;5.45;3.28;;;16.10;99.90;;;;;;5007289;28;20203;-75
2023/08/07 00:55:35;;;;;;;8.13;3.50;;;16.10;99.90;;;;;;5007777;28;20177;-75
2023/08/07 00:58:00;;;;;;;5.18;3.15;;;16.10;99.90;;;;;;5006982;28;20193;-74
2023/08/07 01:00:29;;;;;;;3.80;2.90;;;16.10;99.90;;;;;;5006588;28;20249;-75
2023/08/07 01:02:56;;;;;;;4.15;2.90;;;16.10;99.90;;;;;;5005820;28;20702;-74
2023/08/07 01:05:24;;;;;;;5.95;3.63;;;16.10;99.90;;;;;;5003530;28;20220;-75
2023/08/07 01:07:54;;;;;;;4.18;2.70;;;16.00;99.90;;;;;;5017881;28;20260;-75
2023/08/07 01:10:25;;;;;;;4.45;2.92;;;15.90;99.90;;;;;;5001177;28;20185;-75
2023/08/07 01:13:04;;;;;;;4.88;3.65;;;15.90;99.90;;;;;;5004009;28;20201;-75
2023/08/07 01:15:33;;;;;;;6.50;3.30;;;15.90;99.90;;;;;;5003492;28;20577;-75
2023/08/07 01:18:00;;;;;;;3.75;3.13;;;15.90;99.90;;;;;;5006910;28;20686;-75
2023/08/07 01:20:25;;;;;;;5.93;3.25;;;16.00;99.90;;;;;;5010457;28;20683;-75
2023/08/07 01:22:51;;;;;;;6.28;3.00;;;16.00;99.90;;;;;;5010034;28;20227;-75
2023/08/07 01:25:17;;;;;;;4.75;3.10;;;16.00;99.90;;;;;;5017785;28;20273;-75
2023/08/07 01:28:01;;;;;;;3.92;3.05;;;15.90;99.90;;;;;;5008686;28;20196;-74
2023/08/07 01:30:31;;;;;;;4.50;3.03;;;15.90;99.90;;;;;;5006650;28;20208;-75
2023/08/07 01:33:09;;;;;;;5.53;2.88;;;16.00;99.90;;;;;;5006306;28;20208;-75
2023/08/07 01:35:40;;;;;;;3.75;3.17;;;16.00;99.90;;;;;;5006420;28;20248;-75
2023/08/07 01:38:08;;;;;;;5.18;3.03;;;15.90;99.90;;;;;;5005020;28;20205;-75
2023/08/07 01:40:34;;;;;;;9.25;3.40;;;15.90;99.90;;;;;;5004568;28;20297;-75
2023/08/07 01:43:00;;;;;;;6.15;3.30;;;15.90;99.90;;;;;;5009782;28;20231;-75
2023/08/07 01:45:28;;;;;;;5.93;3.13;;;15.90;99.90;;;;;;5008832;28;20213;-75
2023/08/07 01:47:55;;;;;;;3.28;2.80;;;15.90;99.90;;;;;;5007707;28;20224;-75
2023/08/07 01:50:21;;;;;;;9.57;3.47;;;15.90;99.90;;;;;;5004395;28;20209;-75
2023/08/07 01:52:47;;;;;;;3.20;2.90;;;15.90;99.90;;;;;;5021637;28;20170;-75
2023/08/07 01:55:17;;;;;;;6.38;3.50;;;15.80;99.90;;;;;;5007400;28;20192;-75
2023/08/07 01:57:42;;;;;;;7.88;3.50;;;15.80;99.90;;;;;;5009692;28;20293;-75
2023/08/07 02:00:09;;;;;;;4.07;3.30;;;15.80;99.90;;;;;;5020974;28;20296;-75
2023/08/07 02:02:38;;;;;;;4.78;3.65;;;15.80;99.90;;;;;;5011410;28;20216;-74
2023/08/07 02:05:04;;;;;;;7.90;3.80;;;15.80;99.90;;;;;;5012380;28;20200;-75
2023/08/07 02:07:31;;;;;;;4.93;3.67;;;15.70;99.90;;;;;;5010205;28;20579;-75
2023/08/07 02:09:57;;;;;;;7.85;3.95;;;15.70;99.90;;;;;;5010893;28;20224;-75
2023/08/07 02:12:23;;;;;;;9.73;4.13;;;15.70;99.90;;;;;;5008014;28;20209;-75
2023/08/07 02:14:48;;;;;;;8.43;3.90;;;15.70;99.90;;;;;;5011941;28;20201;-75
2023/08/07 02:17:14;;;;;;;6.63;4.07;;;15.70;99.90;;;;;;5006901;28;20608;-75
2023/08/07 02:19:40;;;;;;;4.25;3.42;;;15.70;99.90;;;;;;5007721;28;20197;-75
2023/08/07 02:22:05;;;;;;;7.38;4.45;;;15.70;99.90;;;;;;5006788;28;20173;-75
2023/08/07 02:24:31;;;;;;;6.60;3.83;;;15.60;99.90;;;;;;5005475;28;20201;-76
2023/08/07 02:26:57;;;;;;;6.25;3.75;;;15.70;99.90;;;;;;5009239;28;20596;-75
2023/08/07 02:29:22;;;;;;;6.70;4.38;;;15.60;99.90;;;;;;5003018;28;20220;-74
2023/08/07 02:31:48;;;;;;;7.93;4.82;;;15.60;99.90;;;;;;5005340;28;20220;-75
2023/08/07 02:34:13;;;;;;;9.30;4.45;;;15.60;99.90;;;;;;5005827;28;20228;-75
2023/08/07 02:36:39;;;;;;;11.98;4.38;;;15.70;99.90;;;;;;5011955;28;20218;-75
2023/08/07 02:39:04;;;;;;;9.75;4.30;;;15.70;99.90;;;;;;5013141;28;20576;-75
2023/08/07 02:41:31;;;;;;;11.73;4.95;;;15.70;99.90;;;;;;5019439;28;20205;-75
2023/08/07 02:43:57;;;;;;;5.57;4.35;;;15.80;99.90;;;;;;5010678;28;20204;-75
2023/08/07 02:46:23;;;;;;;8.52;4.50;;;15.80;99.90;;;;;;5008668;28;20173;-75
2023/08/07 02:48:48;;;;;;;6.28;3.95;;;15.80;99.90;;;;;;5009560;28;20335;-75
2023/08/07 02:51:14;;;;;;;8.75;4.63;;;15.90;99.90;;;;;;5007853;28;20205;-75
2023/08/07 02:53:39;;;;;;;4.90;3.78;;;15.80;99.90;;;;;;5005829;28;20304;-75
2023/08/07 02:56:05;;;;;;;5.85;4.70;;;15.80;99.90;;;;;;5007577;28;20822;-75
2023/08/07 02:58:31;;;;;;;7.80;4.10;;;15.80;99.90;;;;;;5004805;28;20216;-75
2023/08/07 03:00:56;;;;;;;7.97;4.53;;;15.80;99.90;;;;;;5006673;28;20547;-75
2023/08/07 03:03:22;;;;;;;6.47;4.60;;;15.80;99.90;;;;;;5002198;28;20202;-76
2023/08/07 03:05:51;;;;;;;8.10;4.90;;;15.90;99.90;;;;;;5002965;28;20201;-75
2023/08/07 03:08:17;;;;;;;9.02;4.38;;;15.90;99.90;;;;;;5016059;28;20596;-75
2023/08/07 03:10:55;;;;;;;6.38;4.22;;;15.90;99.90;;;;;;5011719;28;20193;-75
2023/08/07 03:13:20;;;;;;;8.10;4.85;;;15.80;99.90;;;;;;5023980;28;20177;-74
2023/08/07 03:15:49;;;;;;;5.20;4.53;;;15.80;99.90;;;;;;5010001;28;20209;-76
2023/08/07 03:18:14;;;;;;;8.32;5.50;;;15.80;99.90;;;;;;5006927;28;20225;-75
2023/08/07 03:20:40;;;;;;;8.57;4.85;;;15.80;99.90;;;;;;5008479;28;20778;-75
2023/08/07 03:23:05;;;;;;;7.38;4.40;;;15.90;99.90;;;;;;5009086;28;20240;-75
2023/08/07 03:25:31;;;;;;;7.18;5.18;;;15.80;99.90;;;;;;5007262;28;20197;-75
2023/08/07 03:27:57;;;;;;;8.77;5.07;;;15.90;99.90;;;;;;5007812;28;20208;-75
2023/08/07 03:30:22;;;;;;;8.48;5.22;;;15.80;99.90;;;;;;5005600;28;20205;-74
2023/08/07 03:32:48;;;;;;;7.65;5.20;;;15.80;99.90;;;;;;5005903;28;20209;-74
2023/08/07 03:35:14;;;;;;;7.63;5.07;;;15.70;99.90;;;;;;5016081;28;20212;-74
2023/08/07 03:37:39;;;;;;;10.13;5.28;;;15.70;99.90;;;;;;5003649;28;20178;-74
2023/08/07 03:40:05;;;;;;;10.80;5.60;;;15.70;99.90;;;;;;5004860;28;20205;-74
2023/08/07 03:42:31;;;;;;;7.53;5.07;;;15.60;99.90;;;;;;5001368;28;20201;-74
2023/08/07 03:44:57;;;;;;;7.13;5.43;;;15.70;99.90;;;;;;5004004;28;20211;-74
2023/08/07 03:47:23;;;;;;;10.70;5.38;;;15.80;99.90;;;;;;5011496;28;20204;-74
2023/08/07 03:49:49;;;;;;;9.25;5.50;;;15.80;99.90;;;;;;5010155;28;20193;-74
2023/08/07 03:52:15;;;;;;;8.30;5.40;;;15.80;99.90;;;;;;5022559;28;20173;-74
2023/08/07 03:54:40;;;;;;;9.45;5.85;;;15.80;99.90;;;;;;5023650;28;20201;-74
2023/08/07 03:57:08;;;;;;;8.60;5.90;;;15.80;99.90;;;;;;5007337;28;20490;-75
2023/08/07 03:59:33;;;;;;;10.63;5.43;;;15.80;99.90;;;;;;5006686;28;20232;-75
2023/08/07 04:01:59;;;;;;;8.52;5.55;;;15.90;99.90;;;;;;5007845;28;20208;-75
2023/08/07 04:04:25;;;;;;;9.82;5.25;;;15.90;99.90;;;;;;5016992;28;20197;-75
2023/08/07 04:06:50;;;;;;;6.72;5.45;;;15.90;99.90;;;;;;5008138;28;20582;-75
2023/08/07 04:09:16;;;;;;;7.07;4.75;;;15.90;99.90;;;;;;5005428;28;20212;-75
2023/08/07 04:11:42;;;;;;;10.07;4.85;;;15.90;99.90;;;;;;5003355;28;20201;-75
2023/08/07 04:14:08;;;;;;;7.88;4.20;;;16.00;99.90;;;;;;5005327;28;20742;-75
2023/08/07 04:16:34;;;;;;;8.32;5.20;;;16.00;99.90;;;;;;5001556;28;20604;-75
2023/08/07 04:18:59;;;;;;;7.63;5.53;;;16.10;99.90;;;;;;5004565;28;20589;-75
2023/08/07 04:21:25;;;;;;;9.45;5.07;;;16.30;99.90;;;;;;5014980;28;20206;-75
2023/08/07 04:23:50;;;;;;;5.55;4.43;;;16.30;99.90;;;;;;5010006;28;20196;-75
2023/08/07 04:26:16;;;;;;;8.07;5.03;;;16.40;99.90;;;;;;5010629;28;20212;-74
2023/08/07 04:28:42;;;;;;;10.00;5.38;;;16.50;99.90;;;;;;5024049;28;20243;-75
2023/08/07 04:31:08;;;;;;;5.78;4.75;;;16.50;99.90;;;;;;5009443;28;20248;-75
2023/08/07 04:33:34;;;;;;;4.80;4.00;;;16.60;99.90;;;;;;5022039;28;20209;-75
2023/08/07 04:35:59;;;;;;;8.90;4.75;;;16.80;99.90;;;;;;5009006;28;20296;-75
2023/08/07 04:38:26;;;;;;;5.68;3.88;;;16.90;99.90;;;;;;5016496;28;20869;-75
2023/08/07 04:40:51;;;;;;;6.45;4.10;;;17.00;99.90;;;;;;5006034;28;20262;-75
2023/08/07 04:43:20;;;;;;;5.15;3.75;;;17.20;99.90;;;;;;5005077;28;20260;-76
2023/08/07 04:45:45;;;;;;;5.68;3.55;;;17.50;99.90;;;;;;5017990;28;20216;-75
2023/08/07 04:48:11;;;;;;;6.95;4.18;;;17.60;99.90;;;;;;5017917;28;20687;-75
2023/08/07 04:50:37;;;;;;;6.05;4.10;;;17.50;99.90;;;;;;5001904;28;20216;-75
2023/08/07 04:53:04;;;;;;;5.40;3.88;;;17.40;99.90;;;;;;5003793;28;20205;-75
2023/08/07 04:55:31;;;;;;;6.38;4.07;;;17.70;99.90;;;;;;5001239;28;20258;-75
2023/08/07 04:57:56;;;;;;;5.35;3.58;;;18.30;99.90;;;;;;5002494;28;20201;-75
2023/08/07 05:00:23;;;;;;;6.68;3.60;;;19.40;99.90;;;;;;5006878;28;20235;-74
2023/08/07 05:02:48;;;;;;;5.53;3.60;;;19.70;99.90;;;;;;5015837;28;20213;-74
2023/08/07 05:05:14;;;;;;;5.05;3.35;;;19.10;99.90;;;;;;5009893;28;20304;-75
2023/08/07 05:07:41;;;;;;;6.30;3.72;;;18.70;99.90;;;;;;5016199;28;20172;-76
2023/08/07 05:10:07;;;;;;;8.27;3.25;;;18.70;99.90;;;;;;5009109;28;20196;-75
2023/08/07 05:12:33;;;;;;;4.60;3.38;;;18.70;99.90;;;;;;5006410;28;20205;-75
2023/08/07 05:14:58;;;;;;;6.90;3.53;;;18.50;99.90;;;;;;5009955;28;20201;-75
2023/08/07 05:17:24;;;;;;;6.75;2.85;;;18.30;99.90;;;;;;5025318;28;20200;-75
2023/08/07 05:19:50;;;;;;;5.55;3.08;;;18.10;99.90;;;;;;5009332;28;20262;-75
2023/08/07 05:22:15;;;;;;;5.70;3.70;;;17.90;99.90;;;;;;5008391;28;20193;-74
2023/08/07 05:24:41;;;;;;;4.50;3.30;;;17.80;99.90;;;;;;5006935;28;20223;-75
2023/08/07 05:27:08;;;;;;;3.55;3.08;;;17.70;99.90;;;;;;5008627;28;20806;-75
2023/08/07 05:29:34;;;;;;;8.02;3.38;;;17.80;99.90;;;;;;5005295;28;20564;-75
2023/08/07 05:32:00;;;;;;;6.00;3.42;;;17.80;99.90;;;;;;5001324;28;20209;-76
2023/08/07 05:34:25;;;;;;;4.95;3.10;;;18.00;99.90;;;;;;5018611;28;20181;-75
2023/08/07 05:36:51;;;;;;;4.63;3.05;;;18.30;99.90;;;;;;5008600;28;20209;-75
2023/08/07 05:39:17;;;;;;;5.05;2.83;;;18.80;99.90;;;;;;5029166;28;20758;-75
2023/08/07 05:41:42;;;;;;;4.95;3.25;;;18.90;99.90;;;;;;5012416;28;20201;-75
2023/08/07 05:44:08;;;;;;;4.82;3.10;;;19.00;99.90;;;;;;5014076;28;20216;-75
2023/08/07 05:46:33;;;;;;;4.93;3.25;;;19.20;99.90;;;;;;5020379;28;20184;-75
2023/08/07 05:48:59;;;;;;;5.97;3.28;;;19.30;99.90;;;;;;5011032;28;20232;-76
2023/08/07 05:51:25;;;;;;;4.63;2.35;;;19.30;99.90;;;;;;5010851;28;20287;-76
2023/08/07 05:53:50;;;;;;;4.90;2.90;;;19.70;99.90;;;;;;5008369;28;20206;-75
2023/08/07 05:56:17;;;;;;;3.38;2.70;;;20.00;99.90;;;;;;5010785;28;20267;-75
2023/08/07 05:58:43;;;;;;;3.13;2.65;;;20.30;99.90;;;;;;5005887;28;20268;-74
2023/08/07 06:01:09;;;;;;;3.15;2.47;;;20.30;99.90;;;;;;5009277;28;20232;-75
2023/08/07 06:03:34;;;;;;;5.22;2.63;;;20.40;99.90;;;;;;5009407;28;20217;-75
2023/08/07 06:06:00;;;;;;;3.90;2.40;;;20.60;99.90;;;;;;5005937;28;20212;-76
2023/08/07 06:08:26;;;;;;;5.45;3.00;;;20.90;99.90;;;;;;5011475;28;20243;-76
2023/08/07 06:10:51;;;;;;;4.57;2.33;;;21.30;99.90;;;;;;5004581;28;20216;-75
2023/08/07 06:13:17;;;;;;;4.50;2.40;;;21.10;99.90;;;;;;5026306;28;20216;-75
2023/08/07 06:15:42;;;;;;;6.43;2.80;;;21.40;99.90;;;;;;5011870;28;20209;-75
2023/08/07 06:18:08;;;;;;;3.92;2.22;;;21.10;99.90;;;;;;5012500;28;20196;-76
2023/08/07 06:20:34;;;;;;;3.13;2.30;;;20.60;99.90;;;;;;5012656;28;20738;-76
2023/08/07 06:23:00;;;;;;;3.05;2.47;;;20.40;99.90;;;;;;5010539;28;20213;-76
2023/08/07 06:25:27;;;;;;;4.60;2.05;;;20.50;99.90;;;;;;5008385;28;20203;-75
2023/08/07 06:27:53;;;;;;;3.38;2.10;;;20.30;99.90;;;;;;5008987;28;20757;-75
2023/08/07 06:30:19;;;;;;;4.97;2.70;;;20.10;99.90;;;;;;5009163;28;20220;-75
2023/08/07 06:32:44;;;;;;;3.45;2.30;;;19.90;99.90;;;;;;5007386;28;20325;-75
2023/08/07 06:35:10;;;;;;;4.93;2.42;;;19.90;99.90;;;;;;5010396;28;20707;-75
2023/08/07 06:37:36;;;;;;;6.97;2.55;;;19.90;99.90;;;;;;5008942;28;20187;-76
2023/08/07 06:40:02;;;;;;;4.13;3.33;;;20.00;99.90;;;;;;5026881;28;20224;-75
2023/08/07 06:42:28;;;;;;;5.20;2.17;;;20.00;99.90;;;;;;5017673;28;20236;-75
2023/08/07 06:44:53;;;;;;;3.17;2.05;;;20.00;99.90;;;;;;5024045;28;20210;-75
2023/08/07 06:47:19;;;;;;;4.88;2.50;;;20.00;99.90;;;;;;5005549;28;20240;-74
2023/08/07 06:49:44;;;;;;;4.70;2.28;;;20.00;99.90;;;;;;5009105;28;20205;-75
2023/08/07 06:52:10;;;;;;;2.50;2.30;;;20.20;99.90;;;;;;5008568;28;20185;-75
2023/08/07 06:54:36;;;;;;;3.90;2.17;;;20.10;99.90;;;;;;5011306;28;20288;-76
2023/08/07 06:57:01;;;;;;;4.00;1.73;;;20.30;99.90;;;;;;5008492;28;20257;-76
2023/08/07 06:59:27;;;;;;;3.72;2.28;;;20.40;99.90;;;;;;5009519;28;20236;-75
2023/08/07 07:01:52;;;;;;;6.40;2.40;;;20.50;99.90;;;;;;5008885;28;20294;-75
2023/08/07 07:04:18;;;;;;;4.97;2.00;;;20.70;99.90;;;;;;5011100;28;20217;-75
2023/08/07 07:06:44;;;;;;;4.30;2.17;;;20.60;99.90;;;;;;5011520;28;20238;-75
2023/08/07 07:09:10;;;;;;;4.43;2.05;;;20.80;99.90;;;;;;5012723;28;20205;-75
2023/08/07 07:11:35;;;;;;;6.95;2.03;;;21.00;99.90;;;;;;5012380;28;20655;-74
2023/08/07 07:14:01;;;;;;;4.05;1.77;;;21.10;99.90;;;;;;5012863;28;20207;-77
2023/08/07 07:16:27;;;;;;;4.32;2.25;;;21.50;99.90;;;;;;5027770;28;20175;-75
2023/08/07 07:18:55;;;;;;;2.78;1.88;;;21.60;99.90;;;;;;5004254;28;20205;-75
2023/08/07 07:21:21;;;;;;;2.42;1.90;;;21.80;99.90;;;;;;5011622;28;20225;-76
2023/08/07 07:23:47;;;;;;;5.47;2.20;;;22.00;99.90;;;;;;5010421;28;20216;-76
2023/08/07 07:26:12;;;;;;;4.90;1.85;;;22.00;99.90;;;;;;5009868;28;20209;-76
2023/08/07 07:28:38;;;;;;;4.15;1.90;;;22.10;99.90;;;;;;5009896;28;20288;-77
2023/08/07 07:31:04;;;;;;;3.38;1.67;;;22.10;99.90;;;;;;5010403;28;20729;-76
2023/08/07 07:33:30;;;;;;;2.97;1.42;;;22.20;99.90;;;;;;5008502;28;20201;-76
2023/08/07 07:35:56;;;;;;;5.57;2.08;;;22.20;99.90;;;;;;5006088;28;20564;-77
2023/08/07 07:38:22;;;;;;;3.00;1.65;;;21.90;99.90;;;;;;5009422;28;20208;-76
2023/08/07 07:40:47;;;;;;;2.70;1.58;;;21.50;99.90;;;;;;5009481;28;20216;-76
2023/08/07 07:43:13;;;;;;;2.80;1.70;;;21.40;99.90;;;;;;5004900;28;20613;-74
2023/08/07 07:45:38;;;;;;;5.25;1.70;;;21.50;99.90;;;;;;5009104;28;20213;-76
2023/08/07 07:48:06;;;;;;;3.22;1.40;;;21.40;99.90;;;;;;5007419;28;20193;-76
2023/08/07 07:50:31;;;;;;;2.83;1.45;;;21.50;99.90;;;;;;5004694;28;20580;-76
2023/08/07 07:52:57;;;;;;;3.28;1.73;;;21.60;99.90;;;;;;5010361;28;20213;-76
2023/08/07 07:55:24;;;;;;;2.60;1.75;;;21.70;99.90;;;;;;5007861;28;20811;-76
2023/08/07 07:57:50;;;;;;;4.57;1.80;;;21.70;99.90;;;;;;5008391;28;20213;-76
2023/08/07 08:00:16;;;;;;;2.88;1.80;;;22.20;99.90;;;;;;5023315;28;20763;-76
2023/08/07 08:02:42;;;;;;;4.75;1.75;;;22.20;99.90;;;;;;5007287;28;20305;-75
2023/08/07 08:05:10;;;;;;;4.30;1.85;;;22.40;99.90;;;;;;5008110;28;20598;-75
2023/08/07 08:07:37;;;;;;;2.42;1.58;;;22.60;99.90;;;;;;5009060;28;20173;-75
2023/08/07 08:10:03;;;;;;;2.67;1.50;;;22.40;99.90;;;;;;5008152;28;20197;-75
2023/08/07 08:12:30;;;;;;;5.13;1.35;;;22.00;99.90;;;;;;5008682;28;20217;-75
2023/08/07 08:14:56;;;;;;;3.20;1.77;;;22.00;99.90;;;;;;5007513;28;20201;-75
2023/08/07 08:17:22;;;;;;;4.95;1.98;;;21.50;99.90;;;;;;5007558;28;20205;-76
2023/08/07 08:19:48;;;;;;;3.72;2.03;;;20.80;99.90;;;;;;5009143;28;20667;-76
2023/08/07 08:22:14;;;;;;;2.20;1.67;;;20.80;99.90;;;;;;5006173;28;20177;-73
2023/08/07 08:24:39;;;;;;;3.50;1.98;;;20.70;99.90;;;;;;5020677;28;20693;-74
2023/08/07 08:27:05;;;;;;;5.00;2.05;;;20.60;99.90;;;;;;5007773;28;20201;-76
2023/08/07 08:29:31;;;;;;;3.65;2.25;;;20.50;99.90;;;;;;5004877;28;20236;-76
2023/08/07 08:31:56;;;;;;;3.22;1.67;;;20.30;99.90;;;;;;5005405;28;20216;-76
2023/08/07 08:34:22;;;;;;;3.38;2.30;;;20.10;99.90;;;;;;5023728;28;20247;-77
2023/08/07 08:36:48;;;;;;;2.97;1.88;;;19.80;99.90;;;;;;5008291;28;20210;-76
2023/08/07 08:39:13;;;;;;;5.10;2.38;;;19.80;99.90;;;;;;5010593;28;20217;-75
2023/08/07 08:41:42;;;;;;;3.83;1.92;;;20.00;99.90;;;;;;5010720;28;20870;-77
2023/08/07 08:44:11;;;;;;;3.03;2.20;;;20.00;99.90;;;;;;5015811;28;20207;-77
2023/08/07 08:46:38;;;;;;;4.28;2.30;;;20.10;99.90;;;;;;5007156;28;20694;-76
2023/08/07 08:49:05;;;;;;;4.80;2.30;;;20.20;99.90;;;;;;5027663;28;20320;-76
2023/08/07 08:51:32;;;;;;;7.03;2.42;;;20.60;99.90;;;;;;5015998;28;20215;-76
2023/08/07 08:53:59;;;;;;;4.35;1.85;;;21.30;99.90;;;;;;5010408;28;20208;-76
2023/08/07 08:56:25;;;;;;;2.83;1.90;;;21.80;99.90;;;;;;5005039;28;20236;-77
2023/08/07 08:58:50;;;;;;;4.05;2.25;;;21.90;99.90;;;;;;5006500;28;20315;-76
2023/08/07 09:01:18;;;;;;;2.90;1.90;;;21.90;99.90;;;;;;5007984;28;20200;-75
2023/08/07 09:03:47;;;;;;;4.20;1.80;;;21.70;99.90;;;;;;5001863;28;20202;-76
2023/08/07 09:06:14;;;;;;;7.78;4.45;;;21.80;99.90;;;;;;5005366;28;20296;-76
2023/08/07 09:08:44;;;;;;;3.05;1.77;;;22.20;99.90;;;;;;5017372;28;20208;-76
2023/08/07 09:11:14;;;;;;;5.15;1.98;;;22.60;99.90;;;;;;5011539;28;20598;-76
2023/08/07 09:13:42;;;;;;;5.95;2.00;;;22.70;99.90;;;;;;5008137;28;20315;-77
2023/08/07 09:16:10;;;;;;;2.60;1.60;;;22.30;99.90;;;;;;5004884;28;20255;-78
2023/08/07 09:18:36;;;;;;;6.25;2.90;;;21.40;99.90;;;;;;5007109;28;20605;-77
2023/08/07 09:21:02;;;;;;;3.30;2.15;;;20.90;99.90;;;;;;5004169;28;20355;-75
2023/08/07 09:23:28;;;;;;;2.25;1.70;;;20.80;99.90;;;;;;5004781;28;20856;-75
2023/08/07 09:26:01;;;;;;;5.28;1.98;;;21.00;99.90;;;;;;5012150;28;20212;-76
2023/08/07 09:28:28;;;;;;;4.03;1.67;;;21.40;99.90;;;;;;5003412;28;20200;-76
2023/08/07 09:30:53;;;;;;;5.60;2.00;;;21.80;99.90;;;;;;5011186;28;20223;-76
2023/08/07 09:33:26;;;;;;;4.63;1.90;;;21.70;99.90;;;;;;5005973;28;20304;-76
2023/08/07 09:35:57;;;;;;;4.22;1.73;;;22.00;99.90;;;;;;5011295;28;20209;-76
2023/08/07 09:38:23;;;;;;;4.50;2.10;;;22.10;99.90;;;;;;5005244;28;20240;-75
2023/08/07 09:40:49;;;;;;;2.85;1.95;;;21.90;99.90;;;;;;5001472;28;20198;-77
2023/08/07 09:43:22;;;;;;;4.22;1.70;;;21.80;99.90;;;;;;4999208;28;20185;-76
2023/08/07 09:45:50;;;;;;;3.28;1.42;;;21.40;99.90;;;;;;5003204;28;20772;-75
2023/08/07 09:48:23;;;;;;;3.65;1.67;;;21.20;99.90;;;;;;5003336;28;20209;-74
2023/08/07 09:50:48;;;;;;;4.63;2.20;;;21.20;99.90;;;;;;4997656;28;20210;-75
2023/08/07 09:53:14;;;;;;;1.92;1.55;;;21.40;99.90;;;;;;5004137;28;20321;-73
2023/08/07 09:55:39;;;;;;;3.10;1.60;;;21.40;99.90;;;;;;5002417;28;20169;-76
2023/08/07 09:58:07;;;;;;;3.05;1.60;;;21.00;99.90;;;;;;5006530;28;20207;-76
2023/08/07 10:00:37;;;;;;;3.75;1.98;;;20.80;99.90;;;;;;5005417;28;20688;-77
2023/08/07 10:03:04;;;;;;;2.08;1.40;;;20.60;99.90;;;;;;5006571;28;20324;-74
2023/08/07 10:05:30;;;;;;;1.90;1.48;;;20.70;99.90;;;;;;5006780;28;20200;-76
2023/08/07 10:07:57;;;;;;;3.60;1.98;;;20.90;99.90;;;;;;5011599;28;20212;-78
2023/08/07 10:10:25;;;;;;;3.78;1.40;;;20.70;99.90;;;;;;5009554;28;20213;-75
2023/08/07 10:12:53;;;;;;;7.32;2.08;;;21.10;99.90;;;;;;5007728;28;20205;-77
2023/08/07 10:15:19;;;;;;;5.10;1.70;;;21.30;99.90;;;;;;5009155;28;20668;-76
2023/08/07 10:17:45;;;;;;;4.72;1.80;;;21.60;99.90;;;;;;5023140;28;20359;-76
2023/08/07 10:20:12;;;;;;;5.70;1.98;;;21.60;99.90;;;;;;5009762;28;20228;-76
2023/08/07 10:22:38;;;;;;;2.35;1.30;;;21.80;99.90;;;;;;5010057;28;20185;-76
2023/08/07 10:25:07;;;;;;;3.15;1.50;;;21.50;99.90;;;;;;5010489;28;20639;-76
2023/08/07 10:27:36;;;;;;;2.20;1.42;;;21.40;99.90;;;;;;5006679;28;20209;-77
2023/08/07 10:30:05;;;;;;;2.50;1.63;;;21.50;99.90;;;;;;5007569;28;20776;-75
2023/08/07 10:32:32;;;;;;;4.18;1.92;;;21.40;99.90;;;;;;5005862;28;20209;-75
2023/08/07 10:34:58;;;;;;;4.25;2.35;;;21.50;99.90;;;;;;5003089;28;20605;-73
2023/08/07 10:37:44;;;;;;;5.18;2.72;;;21.50;99.90;;;;;;5004416;28;20188;-77
2023/08/07 10:40:12;;;;;;;3.38;1.90;;;21.40;99.90;;;;;;5002196;28;20249;-74
2023/08/07 10:42:50;;;;;;;2.38;1.77;;;21.40;99.90;;;;;;5005418;28;20225;-72
2023/08/07 10:45:21;;;;;;;2.58;1.45;;;21.60;99.90;;;;;;5018697;28;20688;-74
2023/08/07 10:48:17;;;;;;;3.88;1.30;;;21.80;99.90;;;;;;5009167;28;20215;-75
2023/08/07 10:51:12;;;;;;;3.50;1.63;;;21.70;99.90;;;;;;5003137;28;20213;-74
2023/08/07 10:53:42;;;;;;;2.83;1.30;;;21.30;99.90;;;;;;5003939;28;20316;-75
2023/08/07 10:56:09;;;;;;;2.88;1.45;;;21.10;99.90;;;;;;5009173;28;20201;-76
2023/08/07 10:58:37;;;;;;;2.83;1.25;;;21.10;99.90;;;;;;5007952;28;20200;-73
2023/08/07 11:01:22;;;;;;;2.05;1.15;;;21.10;99.90;;;;;;5004109;28;20206;-74
2023/08/07 11:03:53;;;;;;;3.15;1.30;;;21.20;99.90;;;;;;5004581;28;20213;-73
2023/08/07 11:06:32;;;;;;;2.67;1.52;;;21.00;99.90;;;;;;5000440;28;20213;-74
2023/08/07 11:09:05;;;;;;;4.93;1.85;;;20.80;99.90;;;;;;5007194;28;20224;-74
2023/08/07 11:11:40;;;;;;;4.63;1.55;;;20.00;99.90;;;;;;5008064;28;20228;-74
2023/08/07 11:14:07;;;;;;;4.22;1.90;;;19.70;99.90;;;;;;5001344;28;20239;-73
2023/08/07 11:16:34;;;;;;;3.78;1.75;;;19.60;99.90;;;;;;5008036;28;20181;-73
2023/08/07 11:19:00;;;;;;;4.00;2.00;;;19.70;99.90;;;;;;5010824;28;20204;-73
2023/08/07 11:21:26;;;;;;;3.55;1.80;;;19.60;99.90;;;;;;5015584;28;20201;-74
2023/08/07 11:23:52;;;;;;;4.13;1.92;;;19.80;99.90;;;;;;5004187;28;20243;-75
2023/08/07 11:26:21;;;;;;;4.40;2.15;;;19.80;99.90;;;;;;5005121;28;20308;-74
2023/08/07 11:28:47;;;;;;;5.13;2.20;;;19.70;99.90;;;;;;5008089;28;20234;-73
2023/08/07 11:31:14;;;;;;;3.80;2.10;;;19.70;99.90;;;;;;4999255;28;20211;-72
2023/08/07 11:33:40;;;;;;;5.90;1.80;;;19.90;99.90;;;;;;5002562;28;20213;-73
2023/08/07 11:36:15;;;;;;;3.55;1.83;;;20.10;99.90;;;;;;5004638;28;20271;-73
2023/08/07 11:38:45;;;;;;;4.63;2.33;;;19.90;99.90;;;;;;5000104;28;20266;-75
2023/08/07 11:41:12;;;;;;;4.65;2.15;;;19.70;99.90;;;;;;5009030;28;20333;-74
2023/08/07 11:43:38;;;;;;;4.13;2.25;;;19.60;99.90;;;;;;5008451;28;20553;-73
2023/08/07 11:46:06;;;;;;;5.80;2.72;;;19.70;99.90;;;;;;5008710;28;20174;-74
2023/08/07 11:48:36;;;;;;;4.13;1.77;;;20.00;99.90;;;;;;5004518;28;20244;-75
2023/08/07 11:51:03;;;;;;;6.60;1.92;;;20.30;99.90;;;;;;5003345;28;20201;-75
2023/08/07 11:53:31;;;;;;;5.00;1.67;;;20.70;99.90;;;;;;5013061;28;20205;-76
2023/08/07 11:55:58;;;;;;;5.40;1.50;;;21.00;99.90;;;;;;5015415;28;20212;-74
2023/08/07 11:58:32;;;;;;;2.67;1.48;;;21.20;99.90;;;;;;5006542;28;20212;-75
2023/08/07 12:00:58;;;;;;;5.35;1.63;;;21.50;99.90;;;;;;5001256;28;20223;-73
2023/08/07 12:03:38;;;;;;;4.22;1.75;;;21.90;99.90;;;;;;5004875;28;20573;-74
2023/08/07 12:06:06;;;;;;;6.18;2.13;;;22.20;99.90;;;;;;5004660;28;20741;-75
2023/08/07 12:08:35;;;;;;;5.55;2.30;;;22.30;99.90;;;;;;5001674;28;20224;-74
2023/08/07 12:11:04;;;;;;;4.30;2.58;;;22.40;99.90;;;;;;5005686;28;20207;-74
2023/08/07 12:13:30;;;;;;;3.05;1.50;;;22.40;99.90;;;;;;5002330;28;20278;-73
2023/08/07 12:15:58;;;;;;;6.90;2.63;;;22.10;99.90;;;;;;5005825;28;20201;-75
2023/08/07 12:18:26;;;;;;;6.80;3.80;;;21.80;99.90;;;;;;5016658;28;20229;-73
2023/08/07 12:20:59;;;;;;;5.63;1.85;;;21.70;99.90;;;;;;5005688;28;20585;-73
2023/08/07 12:23:25;;;;;;;2.95;1.65;;;21.60;99.90;;;;;;5006530;28;20220;-74
2023/08/07 12:25:52;;;;;;;5.88;2.20;;;21.80;99.90;;;;;;5006111;28;20177;-73
2023/08/07 12:28:18;;;;;;;4.35;1.73;;;21.90;99.90;;;;;;5008257;28;20169;-72
2023/08/07 12:30:47;;;;;;;4.15;2.47;;;21.50;99.90;;;;;;5007477;28;20205;-73
2023/08/07 12:33:14;;;;;;;7.45;4.30;;;21.50;99.90;;;;;;5006018;28;20205;-73
2023/08/07 12:35:41;;;;;;;5.68;2.30;;;21.50;99.90;;;;;;5006451;28;20591;-74
2023/08/07 12:38:08;;;;;;;4.18;2.25;;;21.40;99.90;;;;;;5000323;28;20300;-73
2023/08/07 12:40:36;;;;;;;4.72;2.15;;;21.00;99.90;;;;;;5002790;28;20731;-73
2023/08/07 12:43:02;;;;;;;3.33;1.92;;;20.90;99.90;;;;;;5011260;28;20180;-73
2023/08/07 12:45:28;;;;;;;9.48;3.10;;;20.70;99.90;;;;;;5003720;28;20259;-75